Aviation Digital Data Service (ADDS)

Output produced by METARs form (0243 UTC 24 July 2017)
found at http://www.aviationweather.gov/adds/metars/
 
MRLB 232300Z 2400/2424 09010KT 9999 FEW040 TX32/2419Z TN23/2411Z 
     TEMPO 2419/2424 26008KT FEW025TCU
       
MROC 232300Z 2400/2424 09007KT 9999 FEW035 TX29/2419Z TN19/2410Z 
     TEMPO 2400/2403 VRB02KT 5000 BR BKN020 
     BECMG 2419/2421 23008KT SCT030 
     TEMPO 2420/2424 SHRA SCT020TCU
       
MRLM 232300Z 2400/2424 26007KT 9999 SCT020 TX30/2420Z TN24/2411Z 
     TEMPO 2403/2412 RA BKN015 
     BECMG 2414/2416 06007KT
       
MRPV 232300Z 2400/2424 08012KT 9999 FEW030 TX28/2419Z TN19/2410Z 
     TEMPO 2419/2424 28007KT RA FEW015TCU